sensor_id;sensor_type;location;lat;lon;timestamp;temperature;humidity
5344;DHT22;2694;48.954;8.928;2023-07-30T00:00:49;17.90;99.90
5344;DHT22;2694;48.954;8.928;2023-07-30T00:03:16;17.90;99.90
5344;DHT22;2694;48.954;8.928;2023-07-30T00:05:51;17.80;99.90
5344;DHT22;2694;48.954;8.928;2023-07-30T00:08:20;17.70;99.90
5344;DHT22;2694;48.954;8.928;2023-07-30T00:10:47;17.70;99.90
5344;DHT22;2694;48.954;8.928;2023-07-30T00:13:14;17.60;99.90
5344;DHT22;2694;48.954;8.928;2023-07-30T00:15:41;17.70;99.90
5344;DHT22;2694;48.954;8.928;2023-07-30T00:18:07;17.70;99.90
5344;DHT22;2694;48.954;8.928;2023-07-30T00:20:34;17.70;99.90
5344;DHT22;2694;48.954;8.928;2023-07-30T00:23:02;17.60;99.90
5344;DHT22;2694;48.954;8.928;2023-07-30T00:25:30;17.60;99.90
5344;DHT22;2694;48.954;8.928;2023-07-30T00:27:57;17.60;99.90
5344;DHT22;2694;48.954;8.928;2023-07-30T00:30:24;17.60;99.90
5344;DHT22;2694;48.954;8.928;2023-07-30T00:32:51;17.50;99.90
5344;DHT22;2694;48.954;8.928;2023-07-30T00:35:18;17.40;99.90
5344;DHT22;2694;48.954;8.928;2023-07-30T00:37:45;17.40;99.90
5344;DHT22;2694;48.954;8.928;2023-07-30T00:40:12;17.50;99.90
5344;DHT22;2694;48.954;8.928;2023-07-30T00:42:40;17.50;99.90
5344;DHT22;2694;48.954;8.928;2023-07-30T00:45:09;17.50;99.90
5344;DHT22;2694;48.954;8.928;2023-07-30T00:47:37;17.60;99.90
5344;DHT22;2694;48.954;8.928;2023-07-30T00:50:05;17.60;99.90
5344;DHT22;2694;48.954;8.928;2023-07-30T00:52:32;17.60;99.90
5344;DHT22;2694;48.954;8.928;2023-07-30T00:55:02;17.60;99.90
5344;DHT22;2694;48.954;8.928;2023-07-30T00:57:29;17.60;99.90
5344;DHT22;2694;48.954;8.928;2023-07-30T00:59:58;17.60;99.90
5344;DHT22;2694;48.954;8.928;2023-07-30T01:02:28;18.40;99.90
5344;DHT22;2694;48.954;8.928;2023-07-30T01:04:55;17.70;99.90
5344;DHT22;2694;48.954;8.928;2023-07-30T01:07:22;17.70;99.90
5344;DHT22;2694;48.954;8.928;2023-07-30T01:09:49;17.70;99.90
5344;DHT22;2694;48.954;8.928;2023-07-30T01:12:16;17.60;99.90
5344;DHT22;2694;48.954;8.928;2023-07-30T01:14:43;17.50;99.90
5344;DHT22;2694;48.954;8.928;2023-07-30T01:17:13;17.60;99.90
5344;DHT22;2694;48.954;8.928;2023-07-30T01:19:40;17.60;99.90
5344;DHT22;2694;48.954;8.928;2023-07-30T01:22:08;17.60;99.90
5344;DHT22;2694;48.954;8.928;2023-07-30T01:24:35;17.60;99.90
5344;DHT22;2694;48.954;8.928;2023-07-30T01:27:07;17.60;99.90
5344;DHT22;2694;48.954;8.928;2023-07-30T01:29:41;17.60;99.90
5344;DHT22;2694;48.954;8.928;2023-07-30T01:32:11;17.60;99.90
5344;DHT22;2694;48.954;8.928;2023-07-30T01:34:41;17.50;99.90
5344;DHT22;2694;48.954;8.928;2023-07-30T01:37:12;17.50;99.90
5344;DHT22;2694;48.954;8.928;2023-07-30T01:39:40;17.40;99.90
5344;DHT22;2694;48.954;8.928;2023-07-30T01:42:08;17.40;99.90
5344;DHT22;2694;48.954;8.928;2023-07-30T01:44:38;17.40;99.90
5344;DHT22;2694;48.954;8.928;2023-07-30T01:47:05;17.40;99.90
5344;DHT22;2694;48.954;8.928;2023-07-30T01:49:32;17.40;99.90
5344;DHT22;2694;48.954;8.928;2023-07-30T01:51:59;17.40;99.90
5344;DHT22;2694;48.954;8.928;2023-07-30T01:54:27;17.30;99.90
5344;DHT22;2694;48.954;8.928;2023-07-30T01:56:54;17.30;99.90
5344;DHT22;2694;48.954;8.928;2023-07-30T01:59:21;17.30;99.90
5344;DHT22;2694;48.954;8.928;2023-07-30T02:01:48;17.30;99.90
5344;DHT22;2694;48.954;8.928;2023-07-30T02:04:15;17.40;99.90
5344;DHT22;2694;48.954;8.928;2023-07-30T02:06:43;17.30;99.90
5344;DHT22;2694;48.954;8.928;2023-07-30T02:09:10;17.40;99.90
5344;DHT22;2694;48.954;8.928;2023-07-30T02:11:38;17.30;99.90
5344;DHT22;2694;48.954;8.928;2023-07-30T02:14:05;17.30;99.90
5344;DHT22;2694;48.954;8.928;2023-07-30T02:16:32;17.30;99.90
5344;DHT22;2694;48.954;8.928;2023-07-30T02:18:59;17.30;99.90
5344;DHT22;2694;48.954;8.928;2023-07-30T02:21:26;17.40;99.90
5344;DHT22;2694;48.954;8.928;2023-07-30T02:23:53;17.40;99.90
5344;DHT22;2694;48.954;8.928;2023-07-30T02:26:20;17.40;99.90
5344;DHT22;2694;48.954;8.928;2023-07-30T02:28:48;17.50;99.90
5344;DHT22;2694;48.954;8.928;2023-07-30T02:31:15;17.50;99.90
5344;DHT22;2694;48.954;8.928;2023-07-30T02:33:42;17.40;99.90
5344;DHT22;2694;48.954;8.928;2023-07-30T02:36:09;17.30;99.90
5344;DHT22;2694;48.954;8.928;2023-07-30T02:38:36;17.40;99.90
5344;DHT22;2694;48.954;8.928;2023-07-30T02:41:03;17.20;99.90
5344;DHT22;2694;48.954;8.928;2023-07-30T02:43:30;17.20;99.90
5344;DHT22;2694;48.954;8.928;2023-07-30T02:45:58;17.10;99.90
5344;DHT22;2694;48.954;8.928;2023-07-30T02:48:25;17.20;99.90
5344;DHT22;2694;48.954;8.928;2023-07-30T02:50:52;17.30;99.90
5344;DHT22;2694;48.954;8.928;2023-07-30T02:53:19;17.40;99.90
5344;DHT22;2694;48.954;8.928;2023-07-30T02:55:46;17.40;99.90
5344;DHT22;2694;48.954;8.928;2023-07-30T02:58:12;17.30;99.90
5344;DHT22;2694;48.954;8.928;2023-07-30T03:00:39;17.30;99.90
5344;DHT22;2694;48.954;8.928;2023-07-30T03:03:08;17.30;99.90
5344;DHT22;2694;48.954;8.928;2023-07-30T03:05:35;17.30;99.90
5344;DHT22;2694;48.954;8.928;2023-07-30T03:08:02;17.40;99.90
5344;DHT22;2694;48.954;8.928;2023-07-30T03:10:29;17.40;99.90
5344;DHT22;2694;48.954;8.928;2023-07-30T03:12:56;17.40;99.90
5344;DHT22;2694;48.954;8.928;2023-07-30T03:15:23;17.40;99.90
5344;DHT22;2694;48.954;8.928;2023-07-30T03:17:50;17.50;99.90
5344;DHT22;2694;48.954;8.928;2023-07-30T03:20:18;17.50;99.90
5344;DHT22;2694;48.954;8.928;2023-07-30T03:22:45;17.60;99.90
5344;DHT22;2694;48.954;8.928;2023-07-30T03:25:12;17.50;99.90
5344;DHT22;2694;48.954;8.928;2023-07-30T03:27:39;17.50;99.90
5344;DHT22;2694;48.954;8.928;2023-07-30T03:30:06;17.50;99.90
5344;DHT22;2694;48.954;8.928;2023-07-30T03:32:34;17.40;99.90
5344;DHT22;2694;48.954;8.928;2023-07-30T03:35:01;17.30;99.90
5344;DHT22;2694;48.954;8.928;2023-07-30T03:37:30;17.40;99.90
5344;DHT22;2694;48.954;8.928;2023-07-30T03:39:56;17.30;99.90
5344;DHT22;2694;48.954;8.928;2023-07-30T03:42:23;17.30;99.90
5344;DHT22;2694;48.954;8.928;2023-07-30T03:44:50;17.40;99.90
5344;DHT22;2694;48.954;8.928;2023-07-30T03:47:17;17.40;99.90
5344;DHT22;2694;48.954;8.928;2023-07-30T03:49:44;17.50;99.90
5344;DHT22;2694;48.954;8.928;2023-07-30T03:52:11;17.50;99.90
5344;DHT22;2694;48.954;8.928;2023-07-30T03:54:39;17.40;99.90
5344;DHT22;2694;48.954;8.928;2023-07-30T03:57:06;17.40;99.90
5344;DHT22;2694;48.954;8.928;2023-07-30T03:59:33;17.50;99.90
5344;DHT22;2694;48.954;8.928;2023-07-30T04:02:00;17.60;99.90
5344;DHT22;2694;48.954;8.928;2023-07-30T04:04:27;17.60;99.90
5344;DHT22;2694;48.954;8.928;2023-07-30T04:06:54;17.60;99.90
5344;DHT22;2694;48.954;8.928;2023-07-30T04:09:21;17.60;99.90
5344;DHT22;2694;48.954;8.928;2023-07-30T04:11:49;17.50;99.90
5344;DHT22;2694;48.954;8.928;2023-07-30T04:14:16;17.40;99.90
5344;DHT22;2694;48.954;8.928;2023-07-30T04:16:43;17.40;99.90
5344;DHT22;2694;48.954;8.928;2023-07-30T04:19:12;17.40;99.90
5344;DHT22;2694;48.954;8.928;2023-07-30T04:21:39;17.50;99.90
5344;DHT22;2694;48.954;8.928;2023-07-30T04:24:06;17.40;99.90
5344;DHT22;2694;48.954;8.928;2023-07-30T04:26:33;17.40;99.90
5344;DHT22;2694;48.954;8.928;2023-07-30T04:29:01;17.50;99.90
5344;DHT22;2694;48.954;8.928;2023-07-30T04:31:28;17.60;99.90
5344;DHT22;2694;48.954;8.928;2023-07-30T04:33:55;17.60;99.90
5344;DHT22;2694;48.954;8.928;2023-07-30T04:36:22;17.70;99.90
5344;DHT22;2694;48.954;8.928;2023-07-30T04:38:49;17.80;99.90
5344;DHT22;2694;48.954;8.928;2023-07-30T04:41:16;17.80;99.90
5344;DHT22;2694;48.954;8.928;2023-07-30T04:43:44;17.90;99.90
5344;DHT22;2694;48.954;8.928;2023-07-30T04:46:12;17.90;99.90
5344;DHT22;2694;48.954;8.928;2023-07-30T04:48:40;17.90;99.90
5344;DHT22;2694;48.954;8.928;2023-07-30T04:51:07;18.00;99.90
5344;DHT22;2694;48.954;8.928;2023-07-30T04:53:34;18.00;99.90
5344;DHT22;2694;48.954;8.928;2023-07-30T04:56:01;18.00;99.90
5344;DHT22;2694;48.954;8.928;2023-07-30T04:58:28;17.80;99.90
5344;DHT22;2694;48.954;8.928;2023-07-30T05:00:55;17.70;99.90
5344;DHT22;2694;48.954;8.928;2023-07-30T05:03:24;17.50;99.90
5344;DHT22;2694;48.954;8.928;2023-07-30T05:05:50;17.40;99.90
5344;DHT22;2694;48.954;8.928;2023-07-30T05:08:17;17.40;99.90
5344;DHT22;2694;48.954;8.928;2023-07-30T05:10:44;17.30;99.90
5344;DHT22;2694;48.954;8.928;2023-07-30T05:13:11;17.30;99.90
5344;DHT22;2694;48.954;8.928;2023-07-30T05:15:39;17.20;99.90
5344;DHT22;2694;48.954;8.928;2023-07-30T05:18:06;17.30;99.90
5344;DHT22;2694;48.954;8.928;2023-07-30T05:20:34;17.20;99.90
5344;DHT22;2694;48.954;8.928;2023-07-30T05:23:01;17.30;99.90
5344;DHT22;2694;48.954;8.928;2023-07-30T05:25:28;17.30;99.90
5344;DHT22;2694;48.954;8.928;2023-07-30T05:27:55;17.30;99.90
5344;DHT22;2694;48.954;8.928;2023-07-30T05:30:22;17.40;99.90
5344;DHT22;2694;48.954;8.928;2023-07-30T05:32:49;17.40;99.90
5344;DHT22;2694;48.954;8.928;2023-07-30T05:35:16;17.40;99.90
5344;DHT22;2694;48.954;8.928;2023-07-30T05:37:45;17.40;99.90
5344;DHT22;2694;48.954;8.928;2023-07-30T05:40:12;17.40;99.90
5344;DHT22;2694;48.954;8.928;2023-07-30T05:42:39;17.30;99.90
5344;DHT22;2694;48.954;8.928;2023-07-30T05:45:07;17.30;99.90
5344;DHT22;2694;48.954;8.928;2023-07-30T05:47:34;17.30;99.90
5344;DHT22;2694;48.954;8.928;2023-07-30T05:50:02;17.30;99.90
5344;DHT22;2694;48.954;8.928;2023-07-30T05:52:29;17.40;99.90
5344;DHT22;2694;48.954;8.928;2023-07-30T05:54:57;17.50;99.90
5344;DHT22;2694;48.954;8.928;2023-07-30T05:57:24;17.50;99.90
5344;DHT22;2694;48.954;8.928;2023-07-30T05:59:51;17.70;99.90
5344;DHT22;2694;48.954;8.928;2023-07-30T06:02:18;17.80;99.90
5344;DHT22;2694;48.954;8.928;2023-07-30T06:04:45;17.90;99.90
5344;DHT22;2694;48.954;8.928;2023-07-30T06:07:12;18.00;99.90
5344;DHT22;2694;48.954;8.928;2023-07-30T06:09:39;17.90;99.90
5344;DHT22;2694;48.954;8.928;2023-07-30T06:12:08;17.80;99.90
5344;DHT22;2694;48.954;8.928;2023-07-30T06:14:34;18.00;99.90
5344;DHT22;2694;48.954;8.928;2023-07-30T06:17:01;18.10;99.90
5344;DHT22;2694;48.954;8.928;2023-07-30T06:19:28;18.30;99.90
5344;DHT22;2694;48.954;8.928;2023-07-30T06:21:55;18.40;99.90
5344;DHT22;2694;48.954;8.928;2023-07-30T06:24:24;18.50;99.90
5344;DHT22;2694;48.954;8.928;2023-07-30T06:26:51;18.60;99.90
5344;DHT22;2694;48.954;8.928;2023-07-30T06:29:19;18.90;99.90
5344;DHT22;2694;48.954;8.928;2023-07-30T06:31:46;19.00;99.90
5344;DHT22;2694;48.954;8.928;2023-07-30T06:34:14;19.00;99.90
5344;DHT22;2694;48.954;8.928;2023-07-30T06:36:41;19.10;99.90
5344;DHT22;2694;48.954;8.928;2023-07-30T06:39:08;19.20;99.90
5344;DHT22;2694;48.954;8.928;2023-07-30T06:41:35;19.20;99.90
5344;DHT22;2694;48.954;8.928;2023-07-30T06:44:02;19.30;99.90
5344;DHT22;2694;48.954;8.928;2023-07-30T06:46:31;19.50;99.90
5344;DHT22;2694;48.954;8.928;2023-07-30T06:48:58;19.80;99.90
5344;DHT22;2694;48.954;8.928;2023-07-30T06:51:25;19.80;99.90
5344;DHT22;2694;48.954;8.928;2023-07-30T06:53:53;19.80;99.90
5344;DHT22;2694;48.954;8.928;2023-07-30T06:56:20;19.70;99.90
5344;DHT22;2694;48.954;8.928;2023-07-30T06:58:47;19.70;99.90
5344;DHT22;2694;48.954;8.928;2023-07-30T07:01:14;19.70;99.90
5344;DHT22;2694;48.954;8.928;2023-07-30T07:03:42;19.70;99.90
5344;DHT22;2694;48.954;8.928;2023-07-30T07:06:09;19.60;99.90
5344;DHT22;2694;48.954;8.928;2023-07-30T07:08:36;19.60;99.90
5344;DHT22;2694;48.954;8.928;2023-07-30T07:11:03;19.40;99.90
5344;DHT22;2694;48.954;8.928;2023-07-30T07:13:29;19.30;99.90
5344;DHT22;2694;48.954;8.928;2023-07-30T07:15:56;19.10;99.90
5344;DHT22;2694;48.954;8.928;2023-07-30T07:18:23;19.00;99.90
5344;DHT22;2694;48.954;8.928;2023-07-30T07:20:52;18.90;99.90
5344;DHT22;2694;48.954;8.928;2023-07-30T07:23:18;18.80;99.90
5344;DHT22;2694;48.954;8.928;2023-07-30T07:25:46;18.70;99.90
5344;DHT22;2694;48.954;8.928;2023-07-30T07:28:13;18.60;99.90
5344;DHT22;2694;48.954;8.928;2023-07-30T07:30:39;18.50;99.90
5344;DHT22;2694;48.954;8.928;2023-07-30T07:33:06;18.30;99.90
5344;DHT22;2694;48.954;8.928;2023-07-30T07:35:38;18.10;99.90
5344;DHT22;2694;48.954;8.928;2023-07-30T07:38:06;18.00;99.90
5344;DHT22;2694;48.954;8.928;2023-07-30T07:40:36;18.10;99.90
5344;DHT22;2694;48.954;8.928;2023-07-30T07:43:04;18.20;99.90
5344;DHT22;2694;48.954;8.928;2023-07-30T07:45:31;18.20;99.90
5344;DHT22;2694;48.954;8.928;2023-07-30T07:47:58;18.30;99.90
5344;DHT22;2694;48.954;8.928;2023-07-30T07:50:25;18.30;99.90
5344;DHT22;2694;48.954;8.928;2023-07-30T07:52:52;18.30;99.90
5344;DHT22;2694;48.954;8.928;2023-07-30T07:55:20;18.40;99.90
5344;DHT22;2694;48.954;8.928;2023-07-30T07:57:48;18.40;99.90
5344;DHT22;2694;48.954;8.928;2023-07-30T08:00:15;18.50;99.90
5344;DHT22;2694;48.954;8.928;2023-07-30T08:02:41;18.60;99.90
5344;DHT22;2694;48.954;8.928;2023-07-30T08:05:08;18.80;99.90
5344;DHT22;2694;48.954;8.928;2023-07-30T08:07:35;19.10;99.90
5344;DHT22;2694;48.954;8.928;2023-07-30T08:10:03;19.20;99.90
5344;DHT22;2694;48.954;8.928;2023-07-30T08:12:33;19.30;99.90
5344;DHT22;2694;48.954;8.928;2023-07-30T08:14:59;19.40;99.90
5344;DHT22;2694;48.954;8.928;2023-07-30T08:17:26;19.40;99.90
5344;DHT22;2694;48.954;8.928;2023-07-30T08:19:53;19.40;99.90
5344;DHT22;2694;48.954;8.928;2023-07-30T08:22:20;19.60;99.90
5344;DHT22;2694;48.954;8.928;2023-07-30T08:24:47;19.70;99.90
5344;DHT22;2694;48.954;8.928;2023-07-30T08:27:14;19.70;99.90
5344;DHT22;2694;48.954;8.928;2023-07-30T08:29:42;19.80;99.90
5344;DHT22;2694;48.954;8.928;2023-07-30T08:32:10;19.90;99.90
5344;DHT22;2694;48.954;8.928;2023-07-30T08:34:38;20.20;99.90
5344;DHT22;2694;48.954;8.928;2023-07-30T08:37:05;20.40;99.90
5344;DHT22;2694;48.954;8.928;2023-07-30T08:39:32;20.40;99.90
5344;DHT22;2694;48.954;8.928;2023-07-30T08:41:59;20.20;99.90
5344;DHT22;2694;48.954;8.928;2023-07-30T08:44:26;20.20;99.90
5344;DHT22;2694;48.954;8.928;2023-07-30T08:46:54;20.40;99.90
5344;DHT22;2694;48.954;8.928;2023-07-30T08:49:21;20.30;99.90
5344;DHT22;2694;48.954;8.928;2023-07-30T08:51:52;20.20;99.90
5344;DHT22;2694;48.954;8.928;2023-07-30T08:54:20;20.30;99.90
5344;DHT22;2694;48.954;8.928;2023-07-30T08:56:49;20.60;99.90
5344;DHT22;2694;48.954;8.928;2023-07-30T08:59:17;20.70;99.90
5344;DHT22;2694;48.954;8.928;2023-07-30T09:01:45;20.30;99.90
5344;DHT22;2694;48.954;8.928;2023-07-30T09:04:17;20.10;99.90
5344;DHT22;2694;48.954;8.928;2023-07-30T09:06:48;20.20;99.90
5344;DHT22;2694;48.954;8.928;2023-07-30T09:09:15;20.20;99.90
5344;DHT22;2694;48.954;8.928;2023-07-30T09:11:42;20.30;99.90
5344;DHT22;2694;48.954;8.928;2023-07-30T09:14:09;20.30;99.90
5344;DHT22;2694;48.954;8.928;2023-07-30T09:16:36;20.40;99.90
5344;DHT22;2694;48.954;8.928;2023-07-30T09:19:06;20.60;99.90
5344;DHT22;2694;48.954;8.928;2023-07-30T09:21:35;20.80;99.90
5344;DHT22;2694;48.954;8.928;2023-07-30T09:24:02;20.80;99.90
5344;DHT22;2694;48.954;8.928;2023-07-30T09:26:41;21.00;99.90
5344;DHT22;2694;48.954;8.928;2023-07-30T09:29:09;21.30;99.90
5344;DHT22;2694;48.954;8.928;2023-07-30T09:31:49;21.40;99.90
5344;DHT22;2694;48.954;8.928;2023-07-30T09:34:20;21.60;99.90
5344;DHT22;2694;48.954;8.928;2023-07-30T09:36:50;22.00;99.90
5344;DHT22;2694;48.954;8.928;2023-07-30T09:39:19;22.50;99.90
5344;DHT22;2694;48.954;8.928;2023-07-30T09:41:47;22.40;99.90
5344;DHT22;2694;48.954;8.928;2023-07-30T09:44:16;22.20;99.90
5344;DHT22;2694;48.954;8.928;2023-07-30T09:46:44;22.20;99.90
5344;DHT22;2694;48.954;8.928;2023-07-30T09:49:11;22.00;99.90
5344;DHT22;2694;48.954;8.928;2023-07-30T09:51:39;21.90;99.90
5344;DHT22;2694;48.954;8.928;2023-07-30T09:54:08;22.00;99.90
5344;DHT22;2694;48.954;8.928;2023-07-30T09:56:36;22.00;99.90
5344;DHT22;2694;48.954;8.928;2023-07-30T09:59:03;21.90;99.90
5344;DHT22;2694;48.954;8.928;2023-07-30T10:01:31;21.40;99.90
5344;DHT22;2694;48.954;8.928;2023-07-30T10:04:06;21.50;99.90
5344;DHT22;2694;48.954;8.928;2023-07-30T10:06:38;21.50;99.90
5344;DHT22;2694;48.954;8.928;2023-07-30T10:09:08;21.80;99.90
5344;DHT22;2694;48.954;8.928;2023-07-30T10:11:37;21.80;99.90
5344;DHT22;2694;48.954;8.928;2023-07-30T10:14:05;21.70;99.90
5344;DHT22;2694;48.954;8.928;2023-07-30T10:16:33;21.90;99.90
5344;DHT22;2694;48.954;8.928;2023-07-30T10:19:00;21.90;99.90
5344;DHT22;2694;48.954;8.928;2023-07-30T10:21:28;22.00;99.90
5344;DHT22;2694;48.954;8.928;2023-07-30T10:24:01;22.20;99.90
5344;DHT22;2694;48.954;8.928;2023-07-30T10:26:31;22.40;99.90
5344;DHT22;2694;48.954;8.928;2023-07-30T10:29:14;22.50;99.90
5344;DHT22;2694;48.954;8.928;2023-07-30T10:31:43;22.30;99.90
5344;DHT22;2694;48.954;8.928;2023-07-30T10:34:10;22.10;99.90
5344;DHT22;2694;48.954;8.928;2023-07-30T10:36:42;22.10;99.90
5344;DHT22;2694;48.954;8.928;2023-07-30T10:39:15;22.10;99.90
5344;DHT22;2694;48.954;8.928;2023-07-30T10:41:48;22.20;99.90
5344;DHT22;2694;48.954;8.928;2023-07-30T10:44:19;21.90;99.90
5344;DHT22;2694;48.954;8.928;2023-07-30T10:46:48;21.70;99.90
5344;DHT22;2694;48.954;8.928;2023-07-30T10:49:17;21.50;99.90
5344;DHT22;2694;48.954;8.928;2023-07-30T10:51:43;21.20;99.90
5344;DHT22;2694;48.954;8.928;2023-07-30T10:54:10;21.10;99.90
5344;DHT22;2694;48.954;8.928;2023-07-30T10:56:38;21.20;99.90
5344;DHT22;2694;48.954;8.928;2023-07-30T10:59:07;21.10;99.90
5344;DHT22;2694;48.954;8.928;2023-07-30T11:01:36;21.00;99.90
5344;DHT22;2694;48.954;8.928;2023-07-30T11:04:09;20.90;99.90
5344;DHT22;2694;48.954;8.928;2023-07-30T11:06:36;20.70;99.90
5344;DHT22;2694;48.954;8.928;2023-07-30T11:09:03;20.40;99.90
5344;DHT22;2694;48.954;8.928;2023-07-30T11:11:31;20.40;99.90
5344;DHT22;2694;48.954;8.928;2023-07-30T11:13:58;20.40;99.90
5344;DHT22;2694;48.954;8.928;2023-07-30T11:16:26;20.60;99.90
5344;DHT22;2694;48.954;8.928;2023-07-30T11:18:53;20.90;99.90
5344;DHT22;2694;48.954;8.928;2023-07-30T11:21:20;20.90;99.90
5344;DHT22;2694;48.954;8.928;2023-07-30T11:23:50;21.20;99.90
5344;DHT22;2694;48.954;8.928;2023-07-30T11:26:19;21.70;99.90
5344;DHT22;2694;48.954;8.928;2023-07-30T11:28:47;21.90;99.90
5344;DHT22;2694;48.954;8.928;2023-07-30T11:31:15;22.40;99.90
5344;DHT22;2694;48.954;8.928;2023-07-30T11:33:45;22.80;99.90
5344;DHT22;2694;48.954;8.928;2023-07-30T11:36:14;22.90;99.90
5344;DHT22;2694;48.954;8.928;2023-07-30T11:38:41;23.10;99.90
5344;DHT22;2694;48.954;8.928;2023-07-30T11:41:10;23.50;99.90
5344;DHT22;2694;48.954;8.928;2023-07-30T11:43:39;23.10;99.90
5344;DHT22;2694;48.954;8.928;2023-07-30T11:46:11;23.10;99.90
5344;DHT22;2694;48.954;8.928;2023-07-30T11:48:39;23.30;99.90
5344;DHT22;2694;48.954;8.928;2023-07-30T11:51:18;23.20;99.90
5344;DHT22;2694;48.954;8.928;2023-07-30T11:53:50;23.20;99.90
5344;DHT22;2694;48.954;8.928;2023-07-30T11:56:18;22.80;99.90
5344;DHT22;2694;48.954;8.928;2023-07-30T11:58:47;22.50;99.90
5344;DHT22;2694;48.954;8.928;2023-07-30T12:01:15;22.00;99.90
5344;DHT22;2694;48.954;8.928;2023-07-30T12:03:42;21.80;99.90
5344;DHT22;2694;48.954;8.928;2023-07-30T12:06:11;21.90;99.90
5344;DHT22;2694;48.954;8.928;2023-07-30T12:08:39;22.10;99.90
5344;DHT22;2694;48.954;8.928;2023-07-30T12:11:07;22.30;99.90
5344;DHT22;2694;48.954;8.928;2023-07-30T12:13:41;22.20;99.90
5344;DHT22;2694;48.954;8.928;2023-07-30T12:16:08;21.90;99.90
5344;DHT22;2694;48.954;8.928;2023-07-30T12:18:37;22.00;99.90
5344;DHT22;2694;48.954;8.928;2023-07-30T12:21:04;21.90;99.90
5344;DHT22;2694;48.954;8.928;2023-07-30T12:23:34;21.80;99.90
5344;DHT22;2694;48.954;8.928;2023-07-30T12:26:02;21.60;99.90
5344;DHT22;2694;48.954;8.928;2023-07-30T12:28:31;21.40;99.90
5344;DHT22;2694;48.954;8.928;2023-07-30T12:30:59;21.40;99.90
5344;DHT22;2694;48.954;8.928;2023-07-30T12:33:26;21.50;99.90
5344;DHT22;2694;48.954;8.928;2023-07-30T12:35:53;21.90;99.90
5344;DHT22;2694;48.954;8.928;2023-07-30T12:38:20;22.10;99.90
5344;DHT22;2694;48.954;8.928;2023-07-30T12:40:48;22.40;99.90
5344;DHT22;2694;48.954;8.928;2023-07-30T12:43:17;22.60;99.90
5344;DHT22;2694;48.954;8.928;2023-07-30T12:45:46;22.80;99.90
5344;DHT22;2694;48.954;8.928;2023-07-30T12:48:13;22.60;99.90
5344;DHT22;2694;48.954;8.928;2023-07-30T12:50:40;22.70;99.90
5344;DHT22;2694;48.954;8.928;2023-07-30T12:53:07;22.90;99.90
5344;DHT22;2694;48.954;8.928;2023-07-30T12:55:34;23.00;99.90
5344;DHT22;2694;48.954;8.928;2023-07-30T12:58:02;23.10;99.90
5344;DHT22;2694;48.954;8.928;2023-07-30T13:00:30;23.00;99.90
5344;DHT22;2694;48.954;8.928;2023-07-30T13:02:57;23.00;99.90
5344;DHT22;2694;48.954;8.928;2023-07-30T13:05:24;23.00;99.90
5344;DHT22;2694;48.954;8.928;2023-07-30T13:07:51;22.80;99.90
5344;DHT22;2694;48.954;8.928;2023-07-30T13:10:18;22.80;99.90
5344;DHT22;2694;48.954;8.928;2023-07-30T13:12:45;23.20;99.90
5344;DHT22;2694;48.954;8.928;2023-07-30T13:15:13;23.10;99.90
5344;DHT22;2694;48.954;8.928;2023-07-30T13:17:40;22.80;99.90
5344;DHT22;2694;48.954;8.928;2023-07-30T13:20:08;22.60;99.90
5344;DHT22;2694;48.954;8.928;2023-07-30T13:22:35;22.60;99.90
5344;DHT22;2694;48.954;8.928;2023-07-30T13:25:02;22.70;99.90
5344;DHT22;2694;48.954;8.928;2023-07-30T13:27:29;22.60;99.90
5344;DHT22;2694;48.954;8.928;2023-07-30T13:29:57;22.40;99.90
5344;DHT22;2694;48.954;8.928;2023-07-30T13:32:25;22.20;99.90
5344;DHT22;2694;48.954;8.928;2023-07-30T13:34:52;22.20;99.90
5344;DHT22;2694;48.954;8.928;2023-07-30T13:37:19;22.10;99.90
5344;DHT22;2694;48.954;8.928;2023-07-30T13:39:46;22.20;99.90
5344;DHT22;2694;48.954;8.928;2023-07-30T13:42:13;22.20;99.90
5344;DHT22;2694;48.954;8.928;2023-07-30T13:44:40;22.00;99.90
5344;DHT22;2694;48.954;8.928;2023-07-30T13:47:07;22.10;99.90
5344;DHT22;2694;48.954;8.928;2023-07-30T13:49:36;22.00;99.90
5344;DHT22;2694;48.954;8.928;2023-07-30T13:52:03;22.10;99.90
5344;DHT22;2694;48.954;8.928;2023-07-30T13:54:30;22.20;99.90
5344;DHT22;2694;48.954;8.928;2023-07-30T13:56:57;22.40;99.90
5344;DHT22;2694;48.954;8.928;2023-07-30T13:59:24;22.50;99.90
5344;DHT22;2694;48.954;8.928;2023-07-30T14:01:51;22.50;99.90
5344;DHT22;2694;48.954;8.928;2023-07-30T14:04:18;22.30;99.90
5344;DHT22;2694;48.954;8.928;2023-07-30T14:06:46;22.20;99.90
5344;DHT22;2694;48.954;8.928;2023-07-30T14:09:13;22.30;99.90
5344;DHT22;2694;48.954;8.928;2023-07-30T14:11:40;22.30;99.90
5344;DHT22;2694;48.954;8.928;2023-07-30T14:14:10;22.30;99.90
5344;DHT22;2694;48.954;8.928;2023-07-30T14:16:37;22.30;99.90
5344;DHT22;2694;48.954;8.928;2023-07-30T14:19:04;22.30;99.90
5344;DHT22;2694;48.954;8.928;2023-07-30T14:21:31;22.40;99.90
5344;DHT22;2694;48.954;8.928;2023-07-30T14:23:59;22.50;99.90
5344;DHT22;2694;48.954;8.928;2023-07-30T14:26:26;22.60;99.90
5344;DHT22;2694;48.954;8.928;2023-07-30T14:28:53;22.50;99.90
5344;DHT22;2694;48.954;8.928;2023-07-30T14:31:20;22.40;99.90
5344;DHT22;2694;48.954;8.928;2023-07-30T14:33:47;22.50;99.90
5344;DHT22;2694;48.954;8.928;2023-07-30T14:36:14;22.60;99.90
5344;DHT22;2694;48.954;8.928;2023-07-30T14:38:41;22.50;99.90
5344;DHT22;2694;48.954;8.928;2023-07-30T14:41:09;22.30;99.90
5344;DHT22;2694;48.954;8.928;2023-07-30T14:43:36;22.20;99.90
5344;DHT22;2694;48.954;8.928;2023-07-30T14:46:03;22.40;99.90
5344;DHT22;2694;48.954;8.928;2023-07-30T14:48:31;22.30;99.90
5344;DHT22;2694;48.954;8.928;2023-07-30T14:50:58;22.40;99.90
5344;DHT22;2694;48.954;8.928;2023-07-30T14:53:25;22.40;99.90
5344;DHT22;2694;48.954;8.928;2023-07-30T14:55:52;22.10;99.90
5344;DHT22;2694;48.954;8.928;2023-07-30T14:58:20;22.10;99.90
5344;DHT22;2694;48.954;8.928;2023-07-30T15:00:47;22.00;99.90
5344;DHT22;2694;48.954;8.928;2023-07-30T15:03:14;22.20;99.90
5344;DHT22;2694;48.954;8.928;2023-07-30T15:05:41;22.50;99.90
5344;DHT22;2694;48.954;8.928;2023-07-30T15:08:08;22.60;99.30
5344;DHT22;2694;48.954;8.928;2023-07-30T15:10:35;22.70;99.90
5344;DHT22;2694;48.954;8.928;2023-07-30T15:13:02;22.60;98.80
5344;DHT22;2694;48.954;8.928;2023-07-30T15:15:31;22.70;99.90
5344;DHT22;2694;48.954;8.928;2023-07-30T15:17:58;22.60;99.90
5344;DHT22;2694;48.954;8.928;2023-07-30T15:20:25;22.50;99.70
5344;DHT22;2694;48.954;8.928;2023-07-30T15:22:53;22.40;99.60
5344;DHT22;2694;48.954;8.928;2023-07-30T15:25:20;22.50;99.90
5344;DHT22;2694;48.954;8.928;2023-07-30T15:27:48;22.70;99.30
5344;DHT22;2694;48.954;8.928;2023-07-30T15:30:15;22.70;99.10
5344;DHT22;2694;48.954;8.928;2023-07-30T15:32:44;22.70;98.90
5344;DHT22;2694;48.954;8.928;2023-07-30T15:35:11;22.70;99.10
5344;DHT22;2694;48.954;8.928;2023-07-30T15:37:38;22.70;99.30
5344;DHT22;2694;48.954;8.928;2023-07-30T15:40:06;22.70;98.10
5344;DHT22;2694;48.954;8.928;2023-07-30T15:42:33;22.70;98.60
5344;DHT22;2694;48.954;8.928;2023-07-30T15:45:01;22.50;99.50
5344;DHT22;2694;48.954;8.928;2023-07-30T15:47:28;22.50;97.80
5344;DHT22;2694;48.954;8.928;2023-07-30T15:49:56;22.50;97.60
5344;DHT22;2694;48.954;8.928;2023-07-30T15:52:23;22.40;98.00
5344;DHT22;2694;48.954;8.928;2023-07-30T15:54:50;22.40;97.80
5344;DHT22;2694;48.954;8.928;2023-07-30T15:57:17;22.30;98.10
5344;DHT22;2694;48.954;8.928;2023-07-30T15:59:44;22.30;98.10
5344;DHT22;2694;48.954;8.928;2023-07-30T16:02:12;22.30;98.00
5344;DHT22;2694;48.954;8.928;2023-07-30T16:04:39;22.20;98.10